Time;durP1;ratioP1;P1;durP2;ratioP2;P2;SDS_P1;SDS_P2;PMS_P1;PMS_P2;Temp;Humidity;BMP_temperature;BMP_pressure;BME280_temperature;BME280_humidity;BME280_pressure;Samples;Min_cycle;Max_cycle;Signal;HPM_P1;HPM_P2
2023/04/10 00:01:00;;;;;;;14.07;7.53;;;6.20;99.90;;;;;;5011286;28;20022;-67
2023/04/10 00:03:26;;;;;;;14.93;8.98;;;6.10;99.90;;;;;;5011546;28;20072;-67
2023/04/10 00:05:53;;;;;;;16.83;8.52;;;6.10;99.90;;;;;;5011606;28;20435;-67
2023/04/10 00:08:21;;;;;;;14.77;7.85;;;6.10;99.90;;;;;;5012321;28;20079;-68
2023/04/10 00:10:46;;;;;;;16.42;7.95;;;6.10;99.90;;;;;;5012590;28;20192;-68
2023/04/10 00:13:13;;;;;;;16.80;8.48;;;6.10;99.90;;;;;;5010899;28;20529;-66
2023/04/10 00:15:39;;;;;;;15.50;8.32;;;6.10;99.90;;;;;;5012125;28;20026;-67
2023/04/10 00:18:04;;;;;;;16.48;8.00;;;6.10;99.90;;;;;;5010532;28;20373;-67
2023/04/10 00:20:30;;;;;;;14.77;8.25;;;6.10;99.90;;;;;;5012164;28;20018;-67
2023/04/10 00:22:55;;;;;;;16.13;8.35;;;6.20;99.90;;;;;;5012007;28;20018;-67
2023/04/10 00:25:22;;;;;;;14.23;7.57;;;6.20;99.90;;;;;;5012219;28;20021;-67
2023/04/10 00:27:47;;;;;;;14.02;7.85;;;6.20;99.90;;;;;;5009043;28;20036;-67
2023/04/10 00:30:13;;;;;;;13.68;7.60;;;6.20;99.90;;;;;;5011951;28;20283;-67
2023/04/10 00:32:39;;;;;;;14.80;7.20;;;6.20;99.90;;;;;;5011043;28;20030;-67
2023/04/10 00:35:05;;;;;;;17.15;8.77;;;6.20;99.90;;;;;;5011733;28;20448;-67
2023/04/10 00:37:31;;;;;;;15.20;8.13;;;6.20;99.90;;;;;;5011610;28;20026;-68
2023/04/10 00:39:57;;;;;;;14.77;7.93;;;6.10;99.90;;;;;;5011862;28;20022;-68
2023/04/10 00:42:22;;;;;;;15.23;8.30;;;6.10;99.90;;;;;;5011811;28;20026;-67
2023/04/10 00:44:48;;;;;;;15.50;8.48;;;6.10;99.90;;;;;;5011869;28;20018;-68
2023/04/10 00:47:14;;;;;;;15.30;7.85;;;6.10;99.90;;;;;;5010443;28;20104;-67
2023/04/10 00:49:40;;;;;;;16.05;8.10;;;6.10;99.90;;;;;;5011916;28;20101;-67
2023/04/10 00:52:06;;;;;;;13.43;7.18;;;6.00;99.90;;;;;;5011898;28;20026;-67
2023/04/10 00:54:34;;;;;;;16.23;8.73;;;6.00;99.90;;;;;;5011667;28;20446;-68
2023/04/10 00:57:01;;;;;;;16.20;7.55;;;6.10;99.90;;;;;;5010259;28;20026;-67
2023/04/10 00:59:27;;;;;;;15.90;8.52;;;6.10;99.90;;;;;;5011575;28;20026;-69
2023/04/10 01:01:53;;;;;;;21.50;8.35;;;6.00;99.90;;;;;;5011635;28;20018;-68
2023/04/10 01:04:20;;;;;;;16.05;8.23;;;6.00;99.90;;;;;;5013870;28;20391;-67
2023/04/10 01:06:51;;;;;;;13.82;7.07;;;6.00;99.90;;;;;;5015768;28;20533;-68
2023/04/10 01:09:35;;;;;;;16.45;7.72;;;6.00;99.90;;;;;;5015261;28;20026;-67
2023/04/10 01:12:27;;;;;;;12.95;7.03;;;6.00;99.90;;;;;;5014479;28;20022;-66
2023/04/10 01:15:10;;;;;;;14.60;7.63;;;6.10;99.90;;;;;;4995982;28;20038;-67
2023/04/10 01:17:51;;;;;;;14.20;7.35;;;6.10;99.90;;;;;;4996054;28;20037;-67
2023/04/10 01:20:22;;;;;;;15.43;7.70;;;6.20;99.90;;;;;;4994510;28;20032;-67
2023/04/10 01:23:15;;;;;;;13.02;7.55;;;6.30;99.90;;;;;;4995912;28;20117;-67
2023/04/10 01:25:55;;;;;;;13.40;7.05;;;6.20;99.90;;;;;;4995894;28;20395;-67
2023/04/10 01:28:50;;;;;;;12.98;6.82;;;6.20;99.90;;;;;;5008957;28;20038;-67
2023/04/10 01:31:28;;;;;;;11.88;7.07;;;6.30;99.90;;;;;;5010114;28;20493;-67
2023/04/10 01:34:01;;;;;;;13.88;7.85;;;6.30;99.90;;;;;;5015290;28;20029;-67
2023/04/10 01:36:32;;;;;;;15.45;8.10;;;6.20;99.90;;;;;;5015030;28;20149;-67
2023/04/10 01:38:59;;;;;;;13.40;7.57;;;6.20;99.90;;;;;;5013469;28;20113;-67
2023/04/10 01:41:26;;;;;;;13.55;6.65;;;6.10;99.90;;;;;;5015078;28;20033;-67
2023/04/10 01:43:53;;;;;;;12.45;7.30;;;6.10;99.90;;;;;;5015030;28;20037;-67
2023/04/10 01:46:21;;;;;;;14.65;7.93;;;6.10;99.90;;;;;;5014958;28;20026;-67
2023/04/10 01:48:48;;;;;;;14.32;8.13;;;6.20;99.90;;;;;;5014551;28;20026;-67
2023/04/10 01:51:15;;;;;;;16.35;7.53;;;6.20;99.90;;;;;;5013961;28;20088;-67
2023/04/10 01:53:43;;;;;;;15.10;8.18;;;6.20;99.90;;;;;;5014877;28;20038;-66
2023/04/10 01:56:09;;;;;;;12.10;7.32;;;6.20;99.90;;;;;;5014950;28;20455;-67
2023/04/10 01:58:35;;;;;;;13.25;7.13;;;6.10;99.90;;;;;;5014372;28;20037;-67
2023/04/10 02:01:01;;;;;;;13.73;7.55;;;6.00;99.90;;;;;;5014694;28;20046;-67
2023/04/10 02:03:27;;;;;;;14.00;7.40;;;6.00;99.90;;;;;;5013337;28;20438;-67
2023/04/10 02:06:13;;;;;;;15.57;7.53;;;6.00;99.90;;;;;;5012596;28;20369;-69
2023/04/10 02:08:51;;;;;;;18.13;7.25;;;5.90;99.90;;;;;;5014102;28;20436;-67
2023/04/10 02:11:46;;;;;;;13.13;6.47;;;5.80;99.90;;;;;;5014645;28;20399;-67
2023/04/10 02:14:17;;;;;;;12.55;6.00;;;5.90;99.90;;;;;;5014395;28;20399;-66
2023/04/10 02:16:43;;;;;;;13.18;7.05;;;5.90;99.90;;;;;;5014572;28;20030;-67
2023/04/10 02:19:11;;;;;;;10.32;6.32;;;5.90;99.90;;;;;;5013955;28;20030;-67
2023/04/10 02:21:38;;;;;;;14.30;6.72;;;5.80;99.90;;;;;;5013508;28;20451;-67
2023/04/10 02:24:05;;;;;;;11.38;6.38;;;5.90;99.90;;;;;;5014199;28;20022;-67
2023/04/10 02:26:46;;;;;;;12.90;6.13;;;5.90;99.90;;;;;;5014145;28;20454;-67
2023/04/10 02:29:12;;;;;;;10.27;5.97;;;6.00;99.90;;;;;;5033649;23;20054;-64
2023/04/10 02:31:37;;;;;;;13.40;5.97;;;6.00;99.90;;;;;;5014019;28;20099;-64
2023/04/10 02:34:03;;;;;;;10.07;5.95;;;6.00;99.90;;;;;;5013902;28;20022;-65
2023/04/10 02:36:28;;;;;;;11.55;6.97;;;6.00;99.90;;;;;;5012989;28;20026;-65
2023/04/10 02:38:54;;;;;;;11.05;6.13;;;6.10;99.90;;;;;;5002615;28;20031;-64
2023/04/10 02:41:21;;;;;;;12.00;6.63;;;6.10;99.90;;;;;;4994471;28;20029;-65
2023/04/10 02:43:46;;;;;;;10.70;6.05;;;6.10;99.90;;;;;;4994377;28;20037;-64
2023/04/10 02:46:12;;;;;;;14.10;6.18;;;6.20;99.90;;;;;;4994506;28;20485;-65
2023/04/10 02:48:37;;;;;;;11.02;6.00;;;6.20;99.90;;;;;;4993849;28;20026;-65
2023/04/10 02:51:03;;;;;;;11.07;6.38;;;6.20;99.90;;;;;;4986390;28;20029;-64
2023/04/10 02:53:29;;;;;;;11.00;5.45;;;6.10;99.90;;;;;;4998768;28;20037;-64
2023/04/10 02:55:54;;;;;;;10.18;5.60;;;6.10;99.90;;;;;;4997650;28;20113;-65
2023/04/10 02:58:20;;;;;;;12.50;6.22;;;6.10;99.90;;;;;;4996554;28;20031;-64
2023/04/10 03:00:50;;;;;;;10.02;6.13;;;6.10;99.90;;;;;;4993993;28;20018;-65
2023/04/10 03:03:18;;;;;;;10.15;5.63;;;6.10;99.90;;;;;;4994023;28;20026;-65
2023/04/10 03:05:48;;;;;;;12.05;5.72;;;6.10;99.90;;;;;;4994127;28;20041;-65
2023/04/10 03:08:14;;;;;;;11.15;5.53;;;6.10;99.90;;;;;;4994116;28;20035;-64
2023/04/10 03:10:42;;;;;;;10.23;5.95;;;6.20;99.90;;;;;;4992079;28;20030;-65
2023/04/10 03:13:08;;;;;;;9.82;5.68;;;6.20;99.90;;;;;;5003850;28;20022;-64
2023/04/10 03:15:34;;;;;;;10.18;5.30;;;6.20;99.90;;;;;;5013370;28;20116;-64
2023/04/10 03:17:59;;;;;;;10.52;5.38;;;6.30;99.90;;;;;;5013113;28;20030;-65
2023/04/10 03:20:25;;;;;;;10.20;5.82;;;6.40;99.90;;;;;;5013233;28;20022;-65
2023/04/10 03:22:50;;;;;;;10.57;6.15;;;6.30;99.90;;;;;;5012014;28;20029;-64
2023/04/10 03:25:16;;;;;;;11.50;5.45;;;6.40;99.90;;;;;;5009134;28;20454;-63
2023/04/10 03:27:42;;;;;;;10.20;5.72;;;6.30;99.90;;;;;;5004051;28;20022;-65
2023/04/10 03:30:08;;;;;;;11.45;6.20;;;6.30;99.90;;;;;;5013135;28;20084;-65
2023/04/10 03:32:33;;;;;;;10.00;5.38;;;6.30;99.90;;;;;;5012978;28;20057;-65
2023/04/10 03:34:59;;;;;;;11.02;5.90;;;6.30;99.90;;;;;;5012965;28;20095;-64
2023/04/10 03:37:26;;;;;;;9.77;5.15;;;6.30;99.90;;;;;;5013009;28;20026;-65
2023/04/10 03:39:52;;;;;;;8.63;5.53;;;6.30;99.90;;;;;;5012782;28;20020;-65
2023/04/10 03:42:17;;;;;;;9.95;5.38;;;6.30;99.90;;;;;;5005979;28;20221;-65
2023/04/10 03:44:43;;;;;;;10.43;5.60;;;6.20;99.90;;;;;;5004438;28;20049;-63
2023/04/10 03:47:09;;;;;;;11.25;4.95;;;6.20;99.90;;;;;;5012811;28;20026;-65
2023/04/10 03:49:34;;;;;;;10.20;5.57;;;6.20;99.90;;;;;;5012570;28;20033;-65
2023/04/10 03:52:00;;;;;;;9.88;5.75;;;6.20;99.90;;;;;;5012586;28;20400;-64
2023/04/10 03:54:25;;;;;;;11.30;6.40;;;6.30;99.90;;;;;;5012616;28;20026;-65
2023/04/10 03:56:51;;;;;;;9.50;5.75;;;6.30;99.90;;;;;;5005084;28;20468;-64
2023/04/10 03:59:16;;;;;;;10.32;5.45;;;6.20;99.90;;;;;;5003928;28;20049;-65
2023/04/10 04:01:42;;;;;;;9.80;5.47;;;6.30;99.90;;;;;;5008756;28;20036;-64
2023/04/10 04:04:07;;;;;;;12.43;7.03;;;6.30;99.90;;;;;;4991546;28;20037;-65
2023/04/10 04:06:33;;;;;;;11.00;6.15;;;6.20;99.90;;;;;;4991890;28;20023;-64
2023/04/10 04:08:59;;;;;;;10.15;5.70;;;6.10;99.90;;;;;;4992302;28;20023;-65
2023/04/10 04:11:24;;;;;;;10.35;5.47;;;6.10;99.90;;;;;;4992793;28;20031;-65
2023/04/10 04:13:50;;;;;;;12.20;6.18;;;6.10;99.90;;;;;;4998866;28;20498;-64
2023/04/10 04:16:15;;;;;;;9.20;5.53;;;6.10;99.90;;;;;;5006071;28;20041;-65
2023/04/10 04:18:41;;;;;;;10.63;6.05;;;6.10;99.90;;;;;;5012021;28;20030;-65
2023/04/10 04:21:07;;;;;;;10.95;5.97;;;6.10;99.90;;;;;;5012418;28;20033;-65
2023/04/10 04:23:33;;;;;;;11.02;6.07;;;6.10;99.90;;;;;;5012367;28;20205;-64
2023/04/10 04:25:58;;;;;;;10.70;5.68;;;6.00;99.90;;;;;;5012189;28;20030;-65
2023/04/10 04:28:24;;;;;;;10.35;5.65;;;5.90;99.90;;;;;;5010548;28;20041;-65
2023/04/10 04:30:50;;;;;;;9.75;5.55;;;5.90;99.90;;;;;;5000058;28;20037;-65
2023/04/10 04:33:15;;;;;;;11.60;5.70;;;5.80;99.90;;;;;;5005859;28;20109;-64
2023/04/10 04:35:41;;;;;;;11.43;5.57;;;5.90;99.90;;;;;;5012274;28;20033;-65
2023/04/10 04:38:06;;;;;;;10.45;5.70;;;5.80;99.90;;;;;;5009592;28;20033;-65
2023/04/10 04:40:32;;;;;;;10.95;5.72;;;5.80;99.90;;;;;;5012068;28;20028;-65
2023/04/10 04:42:57;;;;;;;10.80;6.43;;;5.70;99.90;;;;;;5011978;28;20487;-65
2023/04/10 04:45:23;;;;;;;11.95;6.57;;;5.70;99.90;;;;;;5008697;28;20037;-65
2023/04/10 04:47:49;;;;;;;8.20;4.82;;;5.60;99.90;;;;;;4999928;28;20054;-65
2023/04/10 04:50:15;;;;;;;12.85;5.65;;;5.60;99.90;;;;;;5012095;28;20105;-64
2023/04/10 04:52:41;;;;;;;8.35;5.20;;;5.60;99.90;;;;;;5011960;28;20551;-64
2023/04/10 04:55:07;;;;;;;10.25;5.72;;;5.60;99.90;;;;;;5011745;28;20032;-64
2023/04/10 04:57:33;;;;;;;9.98;6.00;;;5.60;99.90;;;;;;5000703;28;20034;-65
2023/04/10 04:59:58;;;;;;;11.18;6.15;;;5.70;99.90;;;;;;5010913;28;20114;-65
2023/04/10 05:02:24;;;;;;;10.20;6.10;;;5.70;99.90;;;;;;5004021;28;20038;-65
2023/04/10 05:04:49;;;;;;;10.48;5.30;;;5.70;99.90;;;;;;4992107;28;20026;-65
2023/04/10 05:07:15;;;;;;;11.65;6.22;;;5.80;99.90;;;;;;4992296;28;20056;-65
2023/04/10 05:09:41;;;;;;;13.68;6.07;;;5.80;99.90;;;;;;4991810;28;20022;-65
2023/04/10 05:12:06;;;;;;;10.93;6.50;;;5.90;99.90;;;;;;4999563;28;20030;-64
2023/04/10 05:14:32;;;;;;;9.88;6.00;;;6.00;99.90;;;;;;5007087;28;20097;-65
2023/04/10 05:16:58;;;;;;;11.32;5.72;;;6.10;99.90;;;;;;5011974;28;20022;-65
2023/04/10 05:19:23;;;;;;;10.25;5.75;;;6.20;99.90;;;;;;5011386;28;20026;-65
2023/04/10 05:21:49;;;;;;;10.55;5.90;;;6.20;99.90;;;;;;5011796;28;20117;-65
2023/04/10 05:24:14;;;;;;;12.27;5.60;;;6.30;99.90;;;;;;5007523;28;20042;-64
2023/04/10 05:26:41;;;;;;;9.82;5.80;;;6.40;99.90;;;;;;4999382;28;20022;-65
2023/04/10 05:29:07;;;;;;;11.60;6.07;;;6.50;99.90;;;;;;5011091;28;20054;-64
2023/04/10 05:31:32;;;;;;;9.82;5.22;;;6.60;99.90;;;;;;5011576;28;20428;-64
2023/04/10 05:33:58;;;;;;;10.65;5.85;;;6.70;99.90;;;;;;5010159;28;20048;-64
2023/04/10 05:36:24;;;;;;;16.23;7.20;;;6.90;99.90;;;;;;5011619;28;20499;-65
2023/04/10 05:38:50;;;;;;;11.90;6.00;;;6.90;99.90;;;;;;5005292;28;20023;-65
2023/04/10 05:41:15;;;;;;;9.85;5.15;;;7.10;99.90;;;;;;5002841;28;20028;-64
2023/04/10 05:43:41;;;;;;;9.63;5.25;;;7.20;99.90;;;;;;5003034;28;20491;-64
2023/04/10 05:46:07;;;;;;;9.35;5.30;;;7.30;99.90;;;;;;5011357;28;20105;-65
2023/04/10 05:48:32;;;;;;;9.63;5.20;;;7.50;99.90;;;;;;5011172;28;20065;-64
2023/04/10 05:50:58;;;;;;;10.63;6.00;;;7.70;99.90;;;;;;5014422;28;20079;-65
2023/04/10 05:53:31;;;;;;;12.98;5.57;;;8.10;99.90;;;;;;5004939;28;20035;-65
2023/04/10 05:55:58;;;;;;;11.15;6.15;;;8.50;99.90;;;;;;5005309;28;20404;-65
2023/04/10 05:58:25;;;;;;;6.55;4.40;;;9.10;99.90;;;;;;5014577;28;20028;-65
2023/04/10 06:00:51;;;;;;;11.43;5.53;;;9.60;99.90;;;;;;5014883;28;20021;-64
2023/04/10 06:03:17;;;;;;;12.00;5.65;;;10.00;99.90;;;;;;5001709;28;20069;-65
2023/04/10 06:05:42;;;;;;;9.77;5.32;;;10.30;99.90;;;;;;5007033;28;20030;-65
2023/04/10 06:08:08;;;;;;;8.73;5.65;;;10.50;99.90;;;;;;5004624;28;20036;-64
2023/04/10 06:10:34;;;;;;;8.13;5.25;;;11.00;99.30;;;;;;5006307;28;20438;-65
2023/04/10 06:12:59;;;;;;;9.88;5.60;;;11.30;99.00;;;;;;5014513;28;20033;-65
2023/04/10 06:15:25;;;;;;;8.95;5.22;;;12.10;98.00;;;;;;5014520;28;20075;-65
2023/04/10 06:17:50;;;;;;;8.23;5.13;;;12.40;97.20;;;;;;5014060;28;20033;-64
2023/04/10 06:20:16;;;;;;;10.48;6.05;;;12.70;96.50;;;;;;5014569;28;20056;-65
2023/04/10 06:22:42;;;;;;;9.05;5.22;;;12.60;96.20;;;;;;5003692;28;20026;-65
2023/04/10 06:25:08;;;;;;;10.77;6.05;;;12.80;96.30;;;;;;5006445;28;20021;-64
2023/04/10 06:27:36;;;;;;;9.85;6.15;;;12.70;96.40;;;;;;5012564;28;20034;-64
2023/04/10 06:30:02;;;;;;;9.93;5.85;;;13.00;96.10;;;;;;5014281;28;20033;-65
2023/04/10 06:32:28;;;;;;;7.88;5.05;;;13.00;95.60;;;;;;5008508;28;20521;-65
2023/04/10 06:34:53;;;;;;;8.30;5.80;;;13.40;95.00;;;;;;4993117;28;20034;-66
2023/04/10 06:37:19;;;;;;;9.52;5.43;;;13.80;93.30;;;;;;5008026;28;20109;-66
2023/04/10 06:39:44;;;;;;;8.45;5.70;;;13.70;93.30;;;;;;5013619;28;20523;-65
2023/04/10 06:42:10;;;;;;;7.53;4.72;;;14.10;93.30;;;;;;5012659;28;20026;-65
2023/04/10 06:44:36;;;;;;;10.00;6.07;;;14.50;93.10;;;;;;5013827;28;20024;-66
2023/04/10 06:47:01;;;;;;;7.55;4.57;;;15.10;92.20;;;;;;5012062;28;20061;-66
2023/04/10 06:49:27;;;;;;;7.93;5.03;;;15.70;91.10;;;;;;5002038;28;20033;-66
2023/04/10 06:51:52;;;;;;;6.78;4.82;;;16.40;90.20;;;;;;5012034;28;20546;-65
2023/04/10 06:54:18;;;;;;;7.28;4.40;;;16.90;88.80;;;;;;5013589;28;20034;-65
2023/04/10 06:56:43;;;;;;;7.03;5.20;;;17.70;85.40;;;;;;5009533;28;20060;-65
2023/04/10 06:59:09;;;;;;;6.65;4.80;;;17.80;84.20;;;;;;5006003;28;20026;-66
2023/04/10 07:01:35;;;;;;;10.30;5.07;;;18.40;82.80;;;;;;4995008;28;20062;-66
2023/04/10 07:04:01;;;;;;;6.90;4.43;;;18.90;77.50;;;;;;5000513;28;20316;-64
2023/04/10 07:06:27;;;;;;;6.50;4.70;;;18.70;76.20;;;;;;5008271;28;20112;-66
2023/04/10 07:08:52;;;;;;;5.88;4.13;;;19.30;77.10;;;;;;5013048;28;20030;-66
2023/04/10 07:11:18;;;;;;;6.30;4.82;;;19.30;77.40;;;;;;5013320;28;20022;-66
2023/04/10 07:13:43;;;;;;;5.65;4.13;;;19.80;74.20;;;;;;5013441;28;20105;-66
2023/04/10 07:16:09;;;;;;;5.93;4.32;;;20.20;74.40;;;;;;5009946;28;20065;-66
2023/04/10 07:18:37;;;;;;;5.93;4.45;;;21.30;71.50;;;;;;5004188;28;20030;-66
2023/04/10 07:21:11;;;;;;;5.10;4.03;;;21.20;70.10;;;;;;5004872;28;20044;-66
2023/04/10 07:23:37;;;;;;;5.22;4.20;;;21.20;69.10;;;;;;5013596;28;20018;-66
2023/04/10 07:26:03;;;;;;;6.32;4.53;;;21.50;66.80;;;;;;5013054;28;20365;-66
2023/04/10 07:28:28;;;;;;;6.07;4.50;;;21.20;65.90;;;;;;5012795;28;20129;-65
2023/04/10 07:30:54;;;;;;;6.20;4.50;;;20.80;66.80;;;;;;5004862;28;20169;-63
2023/04/10 07:33:20;;;;;;;7.05;4.13;;;21.10;66.20;;;;;;5004732;28;20021;-64
2023/04/10 07:35:45;;;;;;;5.07;3.85;;;21.60;65.70;;;;;;5003790;28;20031;-64
2023/04/10 07:38:12;;;;;;;5.15;3.88;;;21.50;66.80;;;;;;4994706;28;20076;-63
2023/04/10 07:40:37;;;;;;;5.45;4.07;;;21.80;65.30;;;;;;4995493;28;20113;-64
2023/04/10 07:43:03;;;;;;;7.30;4.70;;;22.40;64.70;;;;;;4993330;28;20125;-63
2023/04/10 07:45:28;;;;;;;6.50;3.97;;;22.60;64.50;;;;;;4993187;28;20483;-64
2023/04/10 07:47:54;;;;;;;4.90;3.92;;;21.90;62.20;;;;;;4992879;28;20026;-64
2023/04/10 07:50:20;;;;;;;5.68;3.92;;;21.80;64.00;;;;;;4993004;28;20472;-63
2023/04/10 07:52:47;;;;;;;5.88;4.00;;;21.60;64.80;;;;;;5000083;28;20080;-64
2023/04/10 07:55:12;;;;;;;7.75;3.95;;;21.70;64.60;;;;;;4991599;28;20460;-64
2023/04/10 07:57:38;;;;;;;5.93;4.07;;;21.40;63.80;;;;;;5001031;28;20066;-63
2023/04/10 08:00:04;;;;;;;6.13;4.15;;;21.60;62.70;;;;;;5012259;28;20026;-63
2023/04/10 08:02:30;;;;;;;4.38;3.17;;;21.50;64.80;;;;;;5003744;28;20027;-63
2023/04/10 08:04:55;;;;;;;5.07;3.63;;;21.40;64.60;;;;;;4987857;28;20086;-64
2023/04/10 08:07:21;;;;;;;6.18;3.55;;;21.10;62.10;;;;;;4998461;28;20034;-64
2023/04/10 08:09:47;;;;;;;5.13;3.85;;;21.00;64.40;;;;;;5009532;28;20030;-63
2023/04/10 08:12:12;;;;;;;4.40;3.38;;;20.50;63.50;;;;;;5012092;28;20050;-64
2023/04/10 08:14:38;;;;;;;5.97;3.38;;;19.80;64.80;;;;;;5012157;28;20029;-63
2023/04/10 08:17:04;;;;;;;5.70;3.83;;;19.50;64.70;;;;;;5012420;28;20045;-66
2023/04/10 08:19:29;;;;;;;4.60;3.33;;;19.50;65.00;;;;;;5010365;28;20453;-65
2023/04/10 08:21:55;;;;;;;5.45;3.55;;;18.80;66.50;;;;;;5005511;28;20063;-66
2023/04/10 08:24:21;;;;;;;4.70;3.55;;;19.20;65.70;;;;;;5006208;28;20075;-66
2023/04/10 08:26:47;;;;;;;4.68;2.78;;;19.70;66.70;;;;;;5012141;28;20097;-65
2023/04/10 08:29:13;;;;;;;5.30;3.97;;;19.80;65.80;;;;;;5025670;23;20121;-68
2023/04/10 08:31:38;;;;;;;4.90;3.63;;;20.00;64.50;;;;;;5011963;28;20034;-69
2023/04/10 08:34:04;;;;;;;4.63;3.30;;;19.90;63.70;;;;;;5011076;28;20026;-68
2023/04/10 08:36:30;;;;;;;4.72;3.63;;;20.40;65.20;;;;;;5011740;28;20697;-69
2023/04/10 08:38:57;;;;;;;7.05;3.22;;;20.50;63.70;;;;;;5011466;28;20084;-69
2023/04/10 08:41:22;;;;;;;4.90;3.20;;;20.40;64.80;;;;;;5012055;28;20024;-68
2023/04/10 08:43:48;;;;;;;4.90;3.50;;;20.90;64.20;;;;;;5012118;28;20022;-69
2023/04/10 08:46:15;;;;;;;4.38;2.95;;;20.80;64.80;;;;;;5011812;28;20018;-68
2023/04/10 08:49:01;;;;;;;4.93;3.20;;;20.90;62.70;;;;;;5010360;28;20117;-69
2023/04/10 08:52:06;;;;;;;4.10;3.13;;;21.30;63.80;;;;;;5011646;28;20037;-68
2023/04/10 08:54:36;;;;;;;5.85;3.38;;;20.90;67.20;;;;;;5010959;28;20029;-69
2023/04/10 08:57:03;;;;;;;5.53;3.25;;;21.40;62.90;;;;;;5010194;28;20033;-69
2023/04/10 08:59:30;;;;;;;5.53;3.25;;;21.90;63.20;;;;;;5011173;28;20026;-69
2023/04/10 09:01:56;;;;;;;5.32;3.60;;;21.70;62.10;;;;;;5011594;28;20032;-68
2023/04/10 09:04:24;;;;;;;11.45;3.20;;;21.30;62.60;;;;;;5011822;28;20365;-68
2023/04/10 09:06:49;;;;;;;3.70;2.80;;;21.10;61.90;;;;;;5011680;28;20022;-69
2023/04/10 09:09:15;;;;;;;3.35;2.67;;;20.40;62.20;;;;;;5011318;28;20041;-69
2023/04/10 09:11:59;;;;;;;3.30;2.47;;;20.30;62.90;;;;;;5010394;28;20450;-68
2023/04/10 09:14:28;;;;;;;;;;;20.20;63.10;;;;;;5006446;28;20120;-69
2023/04/10 09:17:19;;;;;;;4.82;3.03;;;20.10;61.60;;;;;;5011652;28;19912;-68
2023/04/10 09:19:51;;;;;;;4.10;3.08;;;19.70;63.10;;;;;;5011349;28;20077;-68
2023/04/10 09:22:17;;;;;;;4.70;2.53;;;20.00;63.40;;;;;;5011617;28;20504;-69
2023/04/10 09:24:44;;;;;;;4.63;3.03;;;19.90;62.30;;;;;;5012543;28;20423;-69
2023/04/10 09:27:25;;;;;;;6.20;3.10;;;19.70;63.00;;;;;;5014236;28;20483;-68
2023/04/10 09:29:51;;;;;;;4.93;2.85;;;19.50;61.10;;;;;;5013494;28;20033;-69
2023/04/10 09:32:42;;;;;;;3.53;2.60;;;19.80;62.50;;;;;;5015238;28;20076;-69
2023/04/10 09:35:14;;;;;;;5.25;3.60;;;20.20;62.50;;;;;;5015034;28;20030;-68
2023/04/10 09:37:42;;;;;;;4.63;3.17;;;20.20;62.20;;;;;;5013606;28;20033;-68
2023/04/10 09:40:23;;;;;;;3.05;2.38;;;20.50;62.20;;;;;;5014888;28;20022;-68
2023/04/10 09:42:48;;;;;;;5.40;2.85;;;21.00;63.20;;;;;;5015120;28;20483;-69
2023/04/10 09:45:18;;;;;;;4.13;2.70;;;21.30;63.90;;;;;;5015011;28;20044;-68
2023/04/10 09:48:04;;;;;;;5.25;2.88;;;21.50;61.20;;;;;;5014846;28;20547;-69
2023/04/10 09:50:34;;;;;;;5.22;3.20;;;21.20;61.20;;;;;;5014942;28;20026;-69
2023/04/10 09:53:00;;;;;;;3.53;2.47;;;20.80;60.90;;;;;;5013620;28;20450;-69
2023/04/10 09:55:27;;;;;;;2.92;2.42;;;20.10;61.40;;;;;;5014681;28;20105;-68
2023/04/10 09:57:52;;;;;;;6.60;2.65;;;19.80;61.70;;;;;;5012588;28;20404;-68
2023/04/10 10:00:19;;;;;;;4.30;2.72;;;19.50;62.10;;;;;;5014496;28;20022;-68
2023/04/10 10:02:44;;;;;;;4.25;2.63;;;19.40;63.50;;;;;;5012531;28;20553;-69
2023/04/10 10:05:10;;;;;;;4.70;2.40;;;19.10;63.80;;;;;;5011700;28;20105;-69
2023/04/10 10:07:38;;;;;;;4.43;3.00;;;19.10;65.90;;;;;;5014376;28;20029;-69
2023/04/10 10:10:06;;;;;;;5.18;2.97;;;18.70;63.80;;;;;;5014469;28;20475;-68
2023/04/10 10:12:49;;;;;;;3.80;2.75;;;19.10;66.70;;;;;;5014422;28;20022;-68
2023/04/10 10:15:39;;;;;;;4.95;2.60;;;19.10;63.70;;;;;;5014445;28;20026;-69
2023/04/10 10:18:21;;;;;;;5.53;3.50;;;18.90;64.60;;;;;;5012947;28;20041;-68
2023/04/10 10:20:49;;;;;;;3.60;2.53;;;19.10;63.10;;;;;;5014136;28;20062;-69
2023/04/10 10:23:16;;;;;;;4.22;2.95;;;19.50;64.60;;;;;;5014370;28;20017;-69
2023/04/10 10:25:43;;;;;;;4.55;3.17;;;19.70;65.40;;;;;;5014292;28;20025;-68
2023/04/10 10:28:12;;;;;;;3.95;3.20;;;19.80;63.50;;;;;;5012571;28;20034;-68
2023/04/10 10:30:38;;;;;;;3.35;2.47;;;19.70;63.60;;;;;;5014557;28;20030;-68
2023/04/10 10:33:06;;;;;;;6.05;2.70;;;19.80;62.50;;;;;;5014142;28;20113;-68
2023/04/10 10:35:34;;;;;;;3.45;2.58;;;19.80;62.30;;;;;;5013207;28;20431;-69
2023/04/10 10:38:02;;;;;;;3.70;2.38;;;19.80;62.00;;;;;;5013366;28;20036;-68
2023/04/10 10:40:30;;;;;;;3.45;2.83;;;19.70;62.30;;;;;;5013977;28;20022;-68
2023/04/10 10:43:12;;;;;;;3.25;2.53;;;19.60;61.30;;;;;;5012886;28;20057;-69
2023/04/10 10:45:49;;;;;;;5.40;3.00;;;19.70;61.90;;;;;;5013944;28;20014;-68
2023/04/10 10:48:15;;;;;;;4.10;2.65;;;19.60;61.40;;;;;;5013743;28;20026;-68
2023/04/10 10:50:52;;;;;;;4.43;3.25;;;19.50;60.60;;;;;;5013818;28;20051;-69
2023/04/10 10:53:39;;;;;;;3.72;2.60;;;19.30;61.80;;;;;;5013829;28;20049;-68
2023/04/10 10:56:17;;;;;;;3.50;2.58;;;19.10;61.30;;;;;;5011774;28;20080;-69
2023/04/10 10:58:47;;;;;;;3.63;2.25;;;19.30;60.80;;;;;;5013438;28;20022;-68
2023/04/10 11:01:13;;;;;;;4.20;2.45;;;19.70;62.80;;;;;;5013550;28;20017;-69
2023/04/10 11:03:39;;;;;;;8.07;2.42;;;19.70;61.10;;;;;;5013444;28;20034;-69
2023/04/10 11:06:09;;;;;;;3.03;2.25;;;19.90;59.80;;;;;;5013480;28;20022;-69
2023/04/10 11:08:42;;;;;;;2.85;2.17;;;19.80;59.30;;;;;;5013282;28;20026;-68
2023/04/10 11:11:24;;;;;;;2.97;2.10;;;19.90;60.30;;;;;;5012101;28;20499;-68
2023/04/10 11:13:55;;;;;;;2.85;2.00;;;19.80;61.30;;;;;;5013308;28;20034;-68
2023/04/10 11:16:39;;;;;;;3.88;2.63;;;19.90;60.50;;;;;;5013246;28;20034;-68
2023/04/10 11:19:07;;;;;;;2.65;1.92;;;20.00;60.60;;;;;;5012832;28;20475;-69
2023/04/10 11:21:33;;;;;;;2.63;1.83;;;19.90;60.70;;;;;;5013395;28;20403;-69
2023/04/10 11:23:59;;;;;;;3.63;1.90;;;20.10;62.40;;;;;;5013214;28;20026;-69
2023/04/10 11:26:43;;;;;;;3.05;1.90;;;20.00;58.90;;;;;;5012148;28;20026;-68
2023/04/10 11:29:20;;;;;;;2.85;1.88;;;19.80;59.00;;;;;;4993289;28;20100;-69
2023/04/10 11:31:59;;;;;;;3.47;2.22;;;20.00;59.90;;;;;;4993379;28;20026;-68
2023/04/10 11:34:26;;;;;;;2.28;2.00;;;20.00;60.10;;;;;;5012372;28;20108;-69
2023/04/10 11:36:52;;;;;;;3.97;2.03;;;20.00;59.10;;;;;;5012939;28;20383;-68
2023/04/10 11:39:19;;;;;;;4.07;1.90;;;19.90;59.50;;;;;;5012513;28;20022;-68
2023/04/10 11:41:48;;;;;;;3.00;2.03;;;19.80;58.30;;;;;;5012897;28;20026;-69
2023/04/10 11:44:21;;;;;;;3.33;1.83;;;19.60;57.90;;;;;;5012661;28;20046;-68
2023/04/10 11:46:47;;;;;;;4.00;2.55;;;19.40;57.70;;;;;;5011273;28;20023;-69
2023/04/10 11:49:21;;;;;;;2.75;1.83;;;19.20;59.40;;;;;;5012152;28;20026;-69
2023/04/10 11:51:48;;;;;;;2.40;1.98;;;19.20;57.70;;;;;;5012781;28;20026;-69
2023/04/10 11:54:25;;;;;;;3.22;2.42;;;19.10;59.60;;;;;;5012570;28;20118;-68
2023/04/10 11:57:03;;;;;;;5.72;2.65;;;19.20;60.00;;;;;;5012580;28;20030;-68
2023/04/10 11:59:30;;;;;;;7.00;4.75;;;19.20;60.60;;;;;;5012183;28;20547;-67
2023/04/10 12:02:06;;;;;;;5.32;3.45;;;19.30;59.80;;;;;;5011025;28;20030;-67
2023/04/10 12:04:32;;;;;;;5.30;4.25;;;19.50;60.70;;;;;;5012410;28;20022;-69
2023/04/10 12:06:58;;;;;;;3.58;2.20;;;19.40;59.90;;;;;;5012384;28;20022;-68
2023/04/10 12:09:24;;;;;;;4.68;2.88;;;19.50;59.20;;;;;;5012028;28;20029;-68
2023/04/10 12:12:01;;;;;;;4.35;2.72;;;19.40;59.40;;;;;;5012362;28;20025;-68
2023/04/10 12:14:38;;;;;;;9.85;4.47;;;19.40;60.80;;;;;;5012340;28;20025;-68
2023/04/10 12:17:06;;;;;;;15.80;8.20;;;19.50;60.30;;;;;;5010932;28;20041;-68
2023/04/10 12:19:33;;;;;;;29.00;15.05;;;19.50;58.40;;;;;;5011668;28;20084;-68
2023/04/10 12:22:01;;;;;;;6.72;4.40;;;19.60;58.70;;;;;;5012263;28;20025;-68
2023/04/10 12:24:46;;;;;;;2.88;2.55;;;19.80;60.10;;;;;;5012052;28;20499;-68
2023/04/10 12:27:26;;;;;;;5.90;4.25;;;20.00;59.60;;;;;;5012222;28;20030;-69
2023/04/10 12:29:54;;;;;;;3.90;2.60;;;20.20;58.70;;;;;;5010729;28;21425;-68
2023/04/10 12:32:20;;;;;;;19.05;11.35;;;20.30;61.30;;;;;;5012127;28;20111;-68
2023/04/10 12:34:56;;;;;;;12.43;7.22;;;19.90;59.00;;;;;;5011905;28;20034;-68
2023/04/10 12:37:22;;;;;;;3.47;2.70;;;20.00;58.50;;;;;;5011997;28;20381;-69
2023/04/10 12:39:47;;;;;;;3.72;2.70;;;20.00;59.00;;;;;;5011623;28;20088;-69
2023/04/10 12:42:22;;;;;;;2.85;2.17;;;20.00;59.30;;;;;;5012030;28;20030;-68
2023/04/10 12:44:55;;;;;;;5.15;3.15;;;19.90;59.50;;;;;;5012090;28;20026;-68
2023/04/10 12:47:22;;;;;;;4.47;2.45;;;19.80;60.10;;;;;;5010875;28;20125;-68
2023/04/10 12:50:09;;;;;;;2.45;2.10;;;19.80;60.30;;;;;;5011420;28;20032;-67
2023/04/10 12:52:36;;;;;;;4.35;2.08;;;19.90;60.40;;;;;;5010919;28;20040;-68
2023/04/10 12:55:20;;;;;;;4.93;2.80;;;19.90;59.40;;;;;;5011378;28;20479;-68